Observation data for Floydada on 01/18/2019      Previous  Date  Next       Current Mesonet Observations  Soil Data  Daily Summary Page  Observations in Plain Language
KFLS 180600Z 18009KT 06/01 A30 RMK A01 T00640011  RH  070%=      5-min Rain = 0
KFLS 180605Z 18008KT 06/01 A30 RMK A01 T00620010  RH  070%=      5-min Rain = 0
KFLS 180610Z 19008KT 06/01 A30 RMK A01 T00590009  RH  071%=      5-min Rain = 0
KFLS 180615Z 19008KT 06/01 A2999 RMK A01 T00570007  RH  071%=      5-min Rain = 0
KFLS 180620Z 19009KT 06/01 A2999 RMK A01 T00570006  RH  070%=      5-min Rain = 0
KFLS 180625Z 19010KT 06/01 A2999 RMK A01 T00580005  RH  070%=      5-min Rain = 0
KFLS 180630Z 20009KT 05/00 A2999 RMK A01 T00530003  RH  071%=      5-min Rain = 0
KFLS 180635Z 20010KT 05/00 A2999 RMK A01 T00510002  RH  072%=      5-min Rain = 0
KFLS 180640Z 19010KT 05/00 A2999 RMK A01 T00530001  RH  070%=      5-min Rain = 0
KFLS 180645Z 19011KT 06/00 A2998 RMK A01 T00580001  RH  068%=      5-min Rain = 0
KFLS 180650Z 19010KT 06/00 A2998 RMK A01 T00620000  RH  066%=      5-min Rain = 0
KFLS 180655Z 19010KT 06/M00 A2998 RMK A01 T00591001  RH  066%=      5-min Rain = 0
KFLS 180700Z 19010KT 06/M00 A2998 RMK A01 T00551002  RH  068%=      5-min Rain = 0
KFLS 180705Z 19010KT 06/M00 A2998 RMK A01 T00551002  RH  067%=      5-min Rain = 0
KFLS 180710Z 19010KT 05/M00 A2998 RMK A01 T00531003  RH  068%=      5-min Rain = 0
KFLS 180715Z 20010KT 05/M00 A2998 RMK A01 T00511004  RH  068%=      5-min Rain = 0
KFLS 180720Z 20009KT 05/M01 A2998 RMK A01 T00511005  RH  068%=      5-min Rain = 0
KFLS 180725Z 21010KT 05/M01 A2997 RMK A01 T00511005  RH  068%=      5-min Rain = 0
KFLS 180730Z 21010KT 06/M01 A2997 RMK A01 T00551005  RH  066%=      5-min Rain = 0
KFLS 180735Z 21010KT 06/M01 A2997 RMK A01 T00601006  RH  063%=      5-min Rain = 0
KFLS 180740Z 21010KT 06/M01 A2996 RMK A01 T00611006  RH  063%=      5-min Rain = 0
KFLS 180745Z 21011KT 06/M01 A2996 RMK A01 T00621006  RH  062%=      5-min Rain = 0
KFLS 180750Z 21011KT 06/M01 A2996 RMK A01 T00601007  RH  063%=      5-min Rain = 0
KFLS 180755Z 22010KT 06/M01 A2996 RMK A01 T00581007  RH  063%=      5-min Rain = 0
KFLS 180800Z 22010KT 06/M01 A2995 RMK A01 T00581007  RH  063%=      5-min Rain = 0
KFLS 180805Z 22010KT 06/M01 A2995 RMK A01 T00571007  RH  064%=      5-min Rain = 0
KFLS 180810Z 22009KT 06/M01 A2995 RMK A01 T00581007  RH  064%=      5-min Rain = 0
KFLS 180815Z 22009KT 06/M01 A2994 RMK A01 T00571007  RH  064%=      5-min Rain = 0
KFLS 180820Z 22008KT 06/M01 A2994 RMK A01 T00561007  RH  065%=      5-min Rain = 0
KFLS 180825Z 22010KT 06/M01 A2994 RMK A01 T00591006  RH  064%=      5-min Rain = 0
KFLS 180830Z 22010KT 06/M01 A2994 RMK A01 T00621005  RH  063%=      5-min Rain = 0
KFLS 180835Z 22010KT 06/M01 A2994 RMK A01 T00621005  RH  063%=      5-min Rain = 0
KFLS 180840Z 21009KT 06/M01 A2993 RMK A01 T00611005  RH  063%=      5-min Rain = 0
KFLS 180845Z 21010KT 06/M00 A2993 RMK A01 T00621004  RH  063%=      5-min Rain = 0
KFLS 180850Z 21011KT 06/M00 A2993 RMK A01 T00631003  RH  063%=      5-min Rain = 0
KFLS 180855Z 22011KT 06/M00 A2993 RMK A01 T00641002  RH  063%=      5-min Rain = 0
KFLS 180900Z 22010KT 06/M00 A2993 RMK A01 T00631002  RH  064%=      5-min Rain = 0
KFLS 180905Z 22009G14KT 06/M00 A2993 RMK A01 T00621002  RH  064%=      5-min Rain = 0
KFLS 180910Z 23009KT 06/M00 A2993 RMK A01 T00571003  RH  066%=      5-min Rain = 0
KFLS 180915Z 24008KT 05/M01 A2993 RMK A01 T00481006  RH  069%=      5-min Rain = 0
KFLS 180920Z 23007KT 04/M01 A2993 RMK A01 T00381008  RH  073%=      5-min Rain = 0
KFLS 180925Z 23007KT 03/M01 A2992 RMK A01 T00301011  RH  075%=      5-min Rain = 0
KFLS 180930Z 22006KT 03/M01 A2992 RMK A01 T00291010  RH  076%=      5-min Rain = 0
KFLS 180935Z 22007KT 03/M01 A2991 RMK A01 T00311009  RH  076%=      5-min Rain = 0
KFLS 180940Z 22007KT 04/M01 A2991 RMK A01 T00351007  RH  075%=      5-min Rain = 0
KFLS 180945Z 22008KT 04/M01 A2991 RMK A01 T00381006  RH  074%=      5-min Rain = 0
KFLS 180950Z 22007KT 04/M01 A299 RMK A01 T00401005  RH  073%=      5-min Rain = 0
KFLS 180955Z 22008KT 04/M01 A299 RMK A01 T00381005  RH  074%=      5-min Rain = 0
KFLS 181000Z 23008KT 04/M01 A299 RMK A01 T00351006  RH  075%=      5-min Rain = 0
KFLS 181005Z 23009KT 04/M01 A299 RMK A01 T00361005  RH  076%=      5-min Rain = 0
KFLS 181010Z 23008KT 03/M01 A299 RMK A01 T00321007  RH  077%=      5-min Rain = 0
KFLS 181015Z 22009KT 03/M01 A2989 RMK A01 T00341005  RH  076%=      5-min Rain = 0
KFLS 181020Z 22010KT 04/M00 A2989 RMK A01 T00381004  RH  075%=      5-min Rain = 0
KFLS 181025Z 22009KT 04/M00 A2988 RMK A01 T00411002  RH  075%=      5-min Rain = 0
KFLS 181030Z 22009KT 04/M00 A2988 RMK A01 T00421002  RH  074%=      5-min Rain = 0
KFLS 181035Z 22009KT 04/M00 A2987 RMK A01 T00431002  RH  074%=      5-min Rain = 0
KFLS 181040Z 22008KT 04/M00 A2987 RMK A01 T00411003  RH  074%=      5-min Rain = 0
KFLS 181045Z 23008KT 04/M00 A2987 RMK A01 T00381004  RH  075%=      5-min Rain = 0
KFLS 181050Z 23007KT 03/M01 A2987 RMK A01 T00341006  RH  076%=      5-min Rain = 0
KFLS 181055Z 22006KT 03/M01 A2986 RMK A01 T00311007  RH  077%=      5-min Rain = 0
KFLS 181100Z 22007KT 03/M01 A2987 RMK A01 T00301007  RH  077%=      5-min Rain = 0
KFLS 181105Z 22007KT 03/M01 A2986 RMK A01 T00281008  RH  078%=      5-min Rain = 0
KFLS 181110Z 22007KT 03/M01 A2986 RMK A01 T00251010  RH  079%=      5-min Rain = 0
KFLS 181115Z 22008KT 02/M01 A2985 RMK A01 T00241008  RH  080%=      5-min Rain = 0
KFLS 181120Z 21009KT 03/M01 A2985 RMK A01 T00291006  RH  079%=      5-min Rain = 0
KFLS 181125Z 22010KT 03/M01 A2985 RMK A01 T00331005  RH  077%=      5-min Rain = 0
KFLS 181130Z 22009KT 04/M00 A2984 RMK A01 T00361004  RH  076%=      5-min Rain = 0
KFLS 181135Z 22008KT 04/M00 A2984 RMK A01 T00381004  RH  075%=      5-min Rain = 0
KFLS 181140Z 22009KT 04/M00 A2983 RMK A01 T00381004  RH  075%=      5-min Rain = 0
KFLS 181145Z 22009KT 04/M00 A2984 RMK A01 T00401003  RH  074%=      5-min Rain = 0
KFLS 181150Z 22009KT 04/M00 A2983 RMK A01 T00401003  RH  074%=      5-min Rain = 0
KFLS 181155Z 22009KT 04/M00 A2983 RMK A01 T00421003  RH  073%=      5-min Rain = 0
KFLS 181200Z 21010KT 05/M00 A2982 RMK A01 T00451002  RH  072%=      5-min Rain = 0
KFLS 181205Z 21011KT 05/M00 A2982 RMK A01 T00451002  RH  072%=      5-min Rain = 0
KFLS 181210Z 21011KT 04/M00 A2982 RMK A01 T00441003  RH  073%=      5-min Rain = 0
KFLS 181215Z 21011G16KT 04/M00 A2982 RMK A01 T00431003  RH  073%=      5-min Rain = 0
KFLS 181220Z 21011KT 04/M00 A2981 RMK A01 T00431003  RH  073%=      5-min Rain = 0
KFLS 181225Z 22010KT 04/M00 A2981 RMK A01 T00421004  RH  073%=      5-min Rain = 0
KFLS 181230Z 22010KT 04/M01 A2981 RMK A01 T00421005  RH  072%=      5-min Rain = 0
KFLS 181235Z 22009KT 04/M01 A2981 RMK A01 T00421005  RH  072%=      5-min Rain = 0
KFLS 181240Z 21011KT 04/M01 A298 RMK A01 T00401005  RH  073%=      5-min Rain = 0
KFLS 181245Z 23011KT 04/M01 A2981 RMK A01 T00421005  RH  072%=      5-min Rain = 0
KFLS 181250Z 23011KT 04/M01 A2981 RMK A01 T00411005  RH  073%=      5-min Rain = 0
KFLS 181255Z 23010KT 04/M01 A298 RMK A01 T00381006  RH  073%=      5-min Rain = 0
KFLS 181300Z 23011KT 04/M01 A2981 RMK A01 T00381006  RH  074%=      5-min Rain = 0
KFLS 181305Z 23011KT 04/M01 A2981 RMK A01 T00401005  RH  073%=      5-min Rain = 0
KFLS 181310Z 23011KT 04/M01 A2981 RMK A01 T00431005  RH  072%=      5-min Rain = 0
KFLS 181315Z 22011KT 04/M00 A2981 RMK A01 T00441004  RH  072%=      5-min Rain = 0
KFLS 181320Z 22011KT 05/M00 A2981 RMK A01 T00471004  RH  071%=      5-min Rain = 0
KFLS 181325Z 22011G16KT 05/M00 A298 RMK A01 T00511003  RH  069%=      5-min Rain = 0
KFLS 181330Z 22012KT 05/M00 A298 RMK A01 T00541003  RH  068%=      5-min Rain = 0
KFLS 181335Z 23011KT 06/M00 A298 RMK A01 T00551003  RH  067%=      5-min Rain = 0
KFLS 181340Z 23011KT 05/M00 A298 RMK A01 T00541003  RH  068%=      5-min Rain = 0
KFLS 181345Z 23012KT 05/M00 A2981 RMK A01 T00541002  RH  068%=      5-min Rain = 0
KFLS 181350Z 23012KT 05/M00 A2981 RMK A01 T00541003  RH  068%=      5-min Rain = 0
KFLS 181355Z 23012KT 05/M00 A298 RMK A01 T00541003  RH  068%=      5-min Rain = 0
KFLS 181400Z 22012KT 06/M00 A298 RMK A01 T00551002  RH  067%=      5-min Rain = 0
KFLS 181405Z 23012KT 06/M00 A298 RMK A01 T00571001  RH  067%=      5-min Rain = 0
KFLS 181410Z 23012KT 06/00 A298 RMK A01 T006000-0  RH  066%=      5-min Rain = 0
KFLS 181415Z 23011KT 06/00 A298 RMK A01 T00590000  RH  066%=      5-min Rain = 0
KFLS 181420Z 23012KT 06/00 A298 RMK A01 T00590000  RH  067%=      5-min Rain = 0
KFLS 181425Z 23012KT 06/00 A298 RMK A01 T00600001  RH  066%=      5-min Rain = 0
KFLS 181430Z 23013KT 06/00 A298 RMK A01 T00610001  RH  066%=      5-min Rain = 0
KFLS 181435Z 23012KT 06/00 A298 RMK A01 T00630001  RH  065%=      5-min Rain = 0
KFLS 181440Z 23011KT 06/00 A298 RMK A01 T00620001  RH  065%=      5-min Rain = 0
KFLS 181445Z 24010G15KT 06/00 A298 RMK A01 T00620001  RH  066%=      5-min Rain = 0
KFLS 181450Z 24010KT 06/00 A298 RMK A01 T00620001  RH  066%=      5-min Rain = 0
KFLS 181455Z 24010KT 07/00 A2979 RMK A01 T00660003  RH  065%=      5-min Rain = 0
KFLS 181500Z 23010KT 07/01 A2979 RMK A01 T00720005  RH  063%=      5-min Rain = 0
KFLS 181505Z 23010KT 08/01 A2979 RMK A01 T00760006  RH  062%=      5-min Rain = 0
KFLS 181510Z 23010KT 08/01 A2979 RMK A01 T00820007  RH  060%=      5-min Rain = 0
KFLS 181515Z 23012KT 08/01 A2979 RMK A01 T00810007  RH  060%=      5-min Rain = 0
KFLS 181520Z 23013KT 08/01 A2979 RMK A01 T00840008  RH  059%=      5-min Rain = 0
KFLS 181525Z 23012G17KT 09/01 A2979 RMK A01 T00900011  RH  058%=      5-min Rain = 0
KFLS 181530Z 23013KT 09/01 A2979 RMK A01 T00920010  RH  057%=      5-min Rain = 0
KFLS 181535Z 23013KT 10/01 A2979 RMK A01 T00960012  RH  056%=      5-min Rain = 0
KFLS 181540Z 23014KT 11/02 A2979 RMK A01 T01070015  RH  054%=      5-min Rain = 0
KFLS 181545Z 23015KT 11/02 A2978 RMK A01 T01120015  RH  052%=      5-min Rain = 0
KFLS 181550Z 24013KT 12/02 A2978 RMK A01 T01210018  RH  050%=      5-min Rain = 0
KFLS 181555Z 24016KT 13/02 A2978 RMK A01 T01340017  RH  045%=      5-min Rain = 0
KFLS 181600Z 24013KT 13/02 A2978 RMK A01 T01320016  RH  046%=      5-min Rain = 0
KFLS 181605Z 23013G19KT 13/02 A2978 RMK A01 T01320015  RH  045%=      5-min Rain = 0
KFLS 181610Z 24015G20KT 13/01 A2978 RMK A01 T01340011  RH  044%=      5-min Rain = 0
KFLS 181615Z 24015KT 14/01 A2978 RMK A01 T01360011  RH  043%=      5-min Rain = 0
KFLS 181620Z 24014KT 14/01 A2977 RMK A01 T01390013  RH  043%=      5-min Rain = 0
KFLS 181625Z 24014KT 14/01 A2977 RMK A01 T01420013  RH  042%=      5-min Rain = 0
KFLS 181630Z 24015KT 15/01 A2977 RMK A01 T01530013  RH  039%=      5-min Rain = 0
KFLS 181635Z 24015G20KT 16/01 A2977 RMK A01 T01580012  RH  038%=      5-min Rain = 0
KFLS 181640Z 24014G19KT 16/01 A2977 RMK A01 T01630010  RH  036%=      5-min Rain = 0
KFLS 181645Z 24017KT 17/01 A2976 RMK A01 T01670006  RH  034%=      5-min Rain = 0
KFLS 181650Z 25017G22KT 17/00 A2976 RMK A01 T01700002  RH  032%=      5-min Rain = 0
KFLS 181655Z 25018G24KT 18/00 A2976 RMK A01 T017600-0  RH  031%=      5-min Rain = 0
KFLS 181700Z 25019G24KT 18/M00 A2976 RMK A01 T01771002  RH  030%=      5-min Rain = 0
KFLS 181705Z 25019G24KT 18/M00 A2975 RMK A01 T01791002  RH  030%=      5-min Rain = 0
KFLS 181710Z 25021G27KT 18/M01 A2975 RMK A01 T01841007  RH  028%=      5-min Rain = 0
KFLS 181715Z 25019KT 19/M01 A2975 RMK A01 T01881008  RH  027%=      5-min Rain = 0
KFLS 181720Z 26019G24KT 19/M01 A2974 RMK A01 T01941010  RH  025%=      5-min Rain = 0
KFLS 181725Z 26021G27KT 20/M01 A2974 RMK A01 T01961013  RH  025%=      5-min Rain = 0
KFLS 181730Z 26021G26KT 20/M01 A2974 RMK A01 T01971013  RH  024%=      5-min Rain = 0
KFLS 181735Z 26023G31KT 20/M02 A2974 RMK A01 T02001017  RH  023%=      5-min Rain = 0
KFLS 181740Z 26023G29KT 20/M02 A2973 RMK A01 T02001018  RH  023%=      5-min Rain = 0
KFLS 181745Z 26024G30KT 20/M02 A2973 RMK A01 T02031017  RH  023%=      5-min Rain = 0
KFLS 181750Z 26024G31KT 20/M02 A2973 RMK A01 T02031016  RH  023%=      5-min Rain = 0
KFLS 181755Z 25027G35KT 20/M02 A2973 RMK A01 T02021017  RH  023%=      5-min Rain = 0
KFLS 181800Z 26028G36KT 20/M01 A2972 RMK A01 T02021014  RH  024%=      5-min Rain = 0
KFLS 181805Z 25029G36KT 20/M01 A2972 RMK A01 T02011012  RH  024%=      5-min Rain = 0
KFLS 181810Z 26027G36KT 20/M01 A2971 RMK A01 T02011010  RH  024%=      5-min Rain = 0
KFLS 181815Z 26027G34KT 20/M01 A2971 RMK A01 T02031010  RH  024%=      5-min Rain = 0
KFLS 181820Z 25027G34KT 20/M01 A297 RMK A01 T02021010  RH  024%=      5-min Rain = 0
KFLS 181825Z 26029G39KT 20/M01 A2969 RMK A01 T02001007  RH  025%=      5-min Rain = 0
KFLS 181830Z 26030G39KT 20/M01 A2969 RMK A01 T01981006  RH  026%=      5-min Rain = 0
KFLS 181835Z 27028G37KT 20/M01 A2968 RMK A01 T02001006  RH  025%=      5-min Rain = 0
KFLS 181840Z 26028G37KT 20/M01 A2968 RMK A01 T02021007  RH  025%=      5-min Rain = 0
KFLS 181845Z 25029G39KT 20/M01 A2968 RMK A01 T02011007  RH  025%=      5-min Rain = 0
KFLS 181850Z 26025G33KT 21/M01 A2967 RMK A01 T02081005  RH  024%=      5-min Rain = 0
KFLS 181855Z 25027G34KT 21/M01 A2967 RMK A01 T02081006  RH  024%=      5-min Rain = 0
KFLS 181900Z 26027G34KT 21/M01 A2967 RMK A01 T02071007  RH  024%=      5-min Rain = 0
KFLS 181905Z 26029G36KT 21/M01 A2967 RMK A01 T02071007  RH  024%=      5-min Rain = 0
KFLS 181910Z 27028G37KT 21/M01 A2966 RMK A01 T02051009  RH  024%=      5-min Rain = 0
KFLS 181915Z 26029G36KT 21/M01 A2966 RMK A01 T02051005  RH  025%=      5-min Rain = 0
KFLS 181920Z 26027G36KT 21/M01 A2965 RMK A01 T02061005  RH  025%=      5-min Rain = 0
KFLS 181925Z 26031G37KT 20/M01 A2966 RMK A01 T02041005  RH  025%=      5-min Rain = 0
KFLS 181930Z 26027G37KT 20/M00 A2965 RMK A01 T02041004  RH  025%=      5-min Rain = 0
KFLS 181935Z 26028G34KT 20/M01 A2965 RMK A01 T02011005  RH  025%=      5-min Rain = 0
KFLS 181940Z 27028G34KT 20/M01 A2965 RMK A01 T02021005  RH  025%=      5-min Rain = 0
KFLS 181945Z 26027G36KT 20/M01 A2964 RMK A01 T02021006  RH  025%=      5-min Rain = 0
KFLS 181950Z 26028G37KT 20/M01 A2964 RMK A01 T02031008  RH  024%=      5-min Rain = 0
KFLS 181955Z 27027G34KT 20/M01 A2963 RMK A01 T02021008  RH  025%=      5-min Rain = 0
KFLS 182000Z 27031G42KT 20/M01 A2963 RMK A01 T02001012  RH  024%=      5-min Rain = 0
KFLS 182005Z 26028G38KT 20/M01 A2963 RMK A01 T02011011  RH  024%=      5-min Rain = 0
KFLS 182010Z 27026G33KT 20/M01 A2963 RMK A01 T02031012  RH  024%=      5-min Rain = 0
KFLS 182015Z 26031G37KT 20/M01 A2962 RMK A01 T02021013  RH  024%=      5-min Rain = 0
KFLS 182020Z 25029G38KT 20/M01 A2962 RMK A01 T02011012  RH  024%=      5-min Rain = 0
KFLS 182025Z 26026G33KT 20/M01 A2962 RMK A01 T02001010  RH  025%=      5-min Rain = 0
KFLS 182030Z 26026G35KT 20/M01 A2963 RMK A01 T02021011  RH  024%=      5-min Rain = 0
KFLS 182035Z 26027G36KT 20/M01 A2963 RMK A01 T02021012  RH  024%=      5-min Rain = 0
KFLS 182040Z 27029G35KT 20/M01 A2963 RMK A01 T02011012  RH  024%=      5-min Rain = 0
KFLS 182045Z 27027G35KT 20/M01 A2962 RMK A01 T02021011  RH  024%=      5-min Rain = 0
KFLS 182050Z 26025G34KT 20/M01 A2963 RMK A01 T01981013  RH  024%=      5-min Rain = 0
KFLS 182055Z 27026G33KT 20/M01 A2963 RMK A01 T02011013  RH  024%=      5-min Rain = 0
KFLS 182100Z 27025G33KT 20/M01 A2962 RMK A01 T02001009  RH  025%=      5-min Rain = 0
KFLS 182105Z 26028G38KT 20/M01 A2963 RMK A01 T01991008  RH  025%=      5-min Rain = 0
KFLS 182110Z 26027G35KT 20/M01 A2962 RMK A01 T02041006  RH  025%=      5-min Rain = 0
KFLS 182115Z 26027G38KT 20/M01 A2962 RMK A01 T02041006  RH  025%=      5-min Rain = 0
KFLS 182120Z 26029G38KT 20/M01 A2962 RMK A01 T02031012  RH  024%=      5-min Rain = 0
KFLS 182125Z 27027G34KT 20/M01 A2962 RMK A01 T01971008  RH  025%=      5-min Rain = 0
KFLS 182130Z 27027G38KT 20/M01 A2962 RMK A01 T01961008  RH  026%=      5-min Rain = 0
KFLS 182135Z 26030G40KT 20/M01 A2962 RMK A01 T01971011  RH  025%=      5-min Rain = 0
KFLS 182140Z 26027G35KT 20/M01 A2962 RMK A01 T01951008  RH  026%=      5-min Rain = 0
KFLS 182145Z 26029G37KT 19/M01 A2962 RMK A01 T01911008  RH  026%=      5-min Rain = 0
KFLS 182150Z 25030G40KT 19/M01 A2962 RMK A01 T01911009  RH  026%=      5-min Rain = 0
KFLS 182155Z 25031G36KT 19/M01 A2962 RMK A01 T01861014  RH  026%=      5-min Rain = 0
KFLS 182200Z 26028G37KT 19/M01 A2963 RMK A01 T01881011  RH  026%=      5-min Rain = 0
KFLS 182205Z 26027G35KT 18/M01 A2963 RMK A01 T01841010  RH  027%=      5-min Rain = 0
KFLS 182210Z 26028G35KT 18/M01 A2963 RMK A01 T01761010  RH  029%=      5-min Rain = 0
KFLS 182215Z 26027G35KT 18/M01 A2963 RMK A01 T01751009  RH  029%=      5-min Rain = 0
KFLS 182220Z 26027G34KT 18/M01 A2963 RMK A01 T01811007  RH  028%=      5-min Rain = 0
KFLS 182225Z 26027G33KT 18/M01 A2962 RMK A01 T01831006  RH  028%=      5-min Rain = 0
KFLS 182230Z 26027G35KT 18/M01 A2963 RMK A01 T01761014  RH  028%=      5-min Rain = 0
KFLS 182235Z 26027G36KT 17/M02 A2963 RMK A01 T01711016  RH  028%=      5-min Rain = 0
KFLS 182240Z 26024G32KT 17/M02 A2963 RMK A01 T01681018  RH  028%=      5-min Rain = 0
KFLS 182245Z 26023G28KT 17/M02 A2963 RMK A01 T01671019  RH  028%=      5-min Rain = 0
KFLS 182250Z 26021G28KT 17/M02 A2963 RMK A01 T01661020  RH  028%=      5-min Rain = 0
KFLS 182255Z 25017G22KT 16/M02 A2964 RMK A01 T01641018  RH  029%=      5-min Rain = 0
KFLS 182300Z 25018G25KT 16/M02 A2964 RMK A01 T01641018  RH  029%=      5-min Rain = 0
KFLS 182305Z 26016G24KT 16/M02 A2964 RMK A01 T01631020  RH  029%=      5-min Rain = 0
KFLS 182310Z 27019G25KT 16/M03 A2964 RMK A01 T01631027  RH  027%=      5-min Rain = 0
KFLS 182315Z 27021G31KT 16/M04 A2964 RMK A01 T01641038  RH  025%=      5-min Rain = 0
KFLS 182320Z 27024G30KT 16/M05 A2964 RMK A01 T01641054  RH  022%=      5-min Rain = 0
KFLS 182325Z 27022G28KT 16/M06 A2964 RMK A01 T01621061  RH  021%=      5-min Rain = 0
KFLS 182330Z 26020G26KT 16/M06 A2964 RMK A01 T01601064  RH  021%=      5-min Rain = 0
KFLS 182335Z 27017G22KT 16/M06 A2964 RMK A01 T01591064  RH  021%=      5-min Rain = 0
KFLS 182340Z 27015G23KT 16/M06 A2964 RMK A01 T01591064  RH  021%=      5-min Rain = 0
KFLS 182345Z 26016KT 16/M06 A2965 RMK A01 T01561063  RH  022%=      5-min Rain = 0
KFLS 182350Z 27020G29KT 15/M07 A2965 RMK A01 T01541066  RH  022%=      5-min Rain = 0
KFLS 182355Z 27024G32KT 15/M08 A2965 RMK A01 T01521078  RH  020%=      5-min Rain = 0
KFLS 190000Z 27022G27KT 15/M08 A2965 RMK A01 T01491077  RH  020%=      5-min Rain = 0
KFLS 190005Z 27019G27KT 14/M07 A2964 RMK A01 T01441074  RH  022%=      5-min Rain = 0
KFLS 190010Z 28022G28KT 14/M07 A2965 RMK A01 T01411066  RH  023%=      5-min Rain = 0
KFLS 190015Z 27022G29KT 14/M06 A2965 RMK A01 T01391059  RH  025%=      5-min Rain = 0
KFLS 190020Z 27020KT 14/M06 A2965 RMK A01 T01361060  RH  025%=      5-min Rain = 0
KFLS 190025Z 27019G25KT 13/M06 A2966 RMK A01 T01331060  RH  026%=      5-min Rain = 0
KFLS 190030Z 27017G23KT 13/M06 A2966 RMK A01 T01301058  RH  027%=      5-min Rain = 0
KFLS 190035Z 27015KT 13/M06 A2966 RMK A01 T01251057  RH  028%=      5-min Rain = 0
KFLS 190040Z 27015KT 12/M06 A2966 RMK A01 T01221056  RH  029%=      5-min Rain = 0
KFLS 190045Z 27014KT 12/M05 A2966 RMK A01 T01211054  RH  029%=      5-min Rain = 0
KFLS 190050Z 27012KT 12/M05 A2966 RMK A01 T01171054  RH  030%=      5-min Rain = 0
KFLS 190055Z 26012KT 11/M06 A2966 RMK A01 T01111055  RH  031%=      5-min Rain = 0
KFLS 190100Z 26012KT 11/M06 A2966 RMK A01 T01091055  RH  032%=      5-min Rain = 0
KFLS 190105Z 30018G30KT 11/M05 A2967 RMK A01 T01101046  RH  034%=      5-min Rain = 0
KFLS 190110Z 33028G37KT 09/M01 A2969 RMK A01 T00861008  RH  052%=      5-min Rain = 0
KFLS 190115Z 34029G39KT 07/M01 A2971 RMK A01 T00701007  RH  059%=      5-min Rain = 0
KFLS 190120Z 33026G34KT 06/M01 A2972 RMK A01 T00621007  RH  062%=      5-min Rain = 0
KFLS 190125Z 34026G33KT 06/M01 A2974 RMK A01 T00561007  RH  064%=      5-min Rain = 0
KFLS 190130Z 34024G34KT 05/M01 A2975 RMK A01 T00521008  RH  066%=      5-min Rain = 0
KFLS 190135Z 34026G35KT 05/M01 A2976 RMK A01 T00491009  RH  067%=      5-min Rain = 0
KFLS 190140Z 34026G38KT 05/M01 A2977 RMK A01 T00451010  RH  068%=      5-min Rain = 0
KFLS 190145Z 34030G37KT 04/M01 A2978 RMK A01 T00431012  RH  069%=      5-min Rain = 0
KFLS 190150Z 34027G40KT 04/M01 A2978 RMK A01 T00401012  RH  069%=      5-min Rain = 0
KFLS 190155Z 33027G41KT 04/M01 A2979 RMK A01 T00391012  RH  070%=      5-min Rain = 0
KFLS 190200Z 34027G35KT 04/M01 A2979 RMK A01 T00381013  RH  070%=      5-min Rain = 0
KFLS 190205Z 33024G35KT 04/M01 A298 RMK A01 T00401012  RH  070%=      5-min Rain = 0
KFLS 190210Z 34023G30KT 04/M01 A2981 RMK A01 T00401012  RH  069%=      5-min Rain = 0
KFLS 190215Z 33025G34KT 04/M01 A2982 RMK A01 T00401012  RH  069%=      5-min Rain = 0
KFLS 190220Z 34028G37KT 04/M01 A2982 RMK A01 T00391013  RH  070%=      5-min Rain = 0
KFLS 190225Z 34025G35KT 04/M01 A2983 RMK A01 T00381012  RH  070%=      5-min Rain = 0
KFLS 190230Z 34024G31KT 04/M01 A2983 RMK A01 T00371012  RH  071%=      5-min Rain = 0
KFLS 190235Z 34024G34KT 04/M01 A2984 RMK A01 T00351013  RH  071%=      5-min Rain = 0
KFLS 190240Z 33026G36KT 03/M02 A2984 RMK A01 T00331015  RH  071%=      5-min Rain = 0
KFLS 190245Z 33026G35KT 03/M02 A2984 RMK A01 T00321016  RH  071%=      5-min Rain = 0
KFLS 190250Z 34025G37KT 03/M02 A2984 RMK A01 T00301020  RH  071%=      5-min Rain = 0
KFLS 190255Z 34024G32KT 03/M02 A2985 RMK A01 T00291020  RH  071%=      5-min Rain = 0
KFLS 190300Z 34025G32KT 03/M02 A2985 RMK A01 T00281018  RH  072%=      5-min Rain = 0
KFLS 190305Z 34024G32KT 03/M02 A2986 RMK A01 T00281019  RH  072%=      5-min Rain = 0
KFLS 190310Z 34026G36KT 03/M02 A2986 RMK A01 T00281021  RH  071%=      5-min Rain = 0
KFLS 190315Z 34027G40KT 03/M02 A2987 RMK A01 T00281023  RH  070%=      5-min Rain = 0
KFLS 190320Z 34023G34KT 03/M02 A2987 RMK A01 T00281023  RH  070%=      5-min Rain = 0
KFLS 190325Z 34024G33KT 03/M02 A2988 RMK A01 T00281024  RH  069%=      5-min Rain = 0
KFLS 190330Z 34024G39KT 03/M03 A2988 RMK A01 T00271028  RH  068%=      5-min Rain = 0
KFLS 190335Z 34027G37KT 03/M03 A2989 RMK A01 T00261031  RH  066%=      5-min Rain = 0
KFLS 190340Z 34026G33KT 03/M03 A2989 RMK A01 T00261032  RH  066%=      5-min Rain = 0
KFLS 190345Z 34024G35KT 03/M03 A299 RMK A01 T00261031  RH  067%=      5-min Rain = 0
KFLS 190350Z 34025G36KT 02/M03 A299 RMK A01 T00241032  RH  067%=      5-min Rain = 0
KFLS 190355Z 34024G33KT 02/M03 A2991 RMK A01 T00231033  RH  067%=      5-min Rain = 0
KFLS 190400Z 34027G40KT 02/M04 A2991 RMK A01 T00221035  RH  067%=      5-min Rain = 0
KFLS 190405Z 34027G35KT 02/M04 A2992 RMK A01 T00221035  RH  067%=      5-min Rain = 0
KFLS 190410Z 34030G38KT 02/M04 A2992 RMK A01 T00211036  RH  067%=      5-min Rain = 0
KFLS 190415Z 35026G34KT 02/M04 A2992 RMK A01 T00211037  RH  066%=      5-min Rain = 0
KFLS 190420Z 34027G35KT 02/M04 A2993 RMK A01 T00211038  RH  066%=      5-min Rain = 0
KFLS 190425Z 34024G37KT 02/M04 A2993 RMK A01 T00211037  RH  066%=      5-min Rain = 0
KFLS 190430Z 34026G36KT 02/M04 A2994 RMK A01 T00211036  RH  067%=      5-min Rain = 0
KFLS 190435Z 34023G34KT 02/M04 A2994 RMK A01 T00211035  RH  067%=      5-min Rain = 0
KFLS 190440Z 34028G36KT 02/M04 A2995 RMK A01 T00201036  RH  067%=      5-min Rain = 0
KFLS 190445Z 34026G34KT 02/M04 A2995 RMK A01 T00201037  RH  066%=      5-min Rain = 0
KFLS 190450Z 34026G36KT 02/M04 A2996 RMK A01 T00201038  RH  066%=      5-min Rain = 0
KFLS 190455Z 34025G37KT 02/M04 A2996 RMK A01 T00201038  RH  066%=      5-min Rain = 0
KFLS 190500Z 34022G31KT 02/M04 A2997 RMK A01 T00191036  RH  068%=      5-min Rain = 0
KFLS 190505Z 34022G28KT 02/M03 A2997 RMK A01 T00171030  RH  072%=      5-min Rain = 0
KFLS 190510Z 34020G31KT 02/M03 A2998 RMK A01 T00161028  RH  073%=      5-min Rain = 0
KFLS 190515Z 34024G31KT 01/M03 A2998 RMK A01 T00111026  RH  077%=      5-min Rain = 0
KFLS 190520Z 34021G31KT 01/M02 A2998 RMK A01 T00051021  RH  084%=      5-min Rain = 0
KFLS 190525Z 34023G32KT 00/M02 A2999 RMK A01 T00031020  RH  085%=      5-min Rain = 0
KFLS 190530Z 34023G32KT 00/M02 A2999 RMK A01 T00031020  RH  086%=      5-min Rain = 0
KFLS 190535Z 34021G27KT 00/M02 A30 RMK A01 T00011019  RH  087%=      5-min Rain = 0
KFLS 190540Z 34019G26KT 00/02 A30 RMK A01 T00-00-17  RH  089%=      5-min Rain = 0
KFLS 190545Z 34019G26KT M00/M02 A30 RMK A01 T10011016  RH  090%=      5-min Rain = 0
KFLS 190550Z 34019G26KT 00/02 A3001 RMK A01 T00-00-16  RH  090%=      5-min Rain = 0
KFLS 190555Z 35021G32KT 00/M02 A3001 RMK A01 T00011020  RH  087%=      5-min Rain = 0

Page generated in 0.0094 seconds.